Time;durP1;ratioP1;P1;durP2;ratioP2;P2;SDS_P1;SDS_P2;PMS_P1;PMS_P2;Temp;Humidity;BMP_temperature;BMP_pressure;BME280_temperature;BME280_humidity;BME280_pressure;Samples;Min_cycle;Max_cycle;Signal;HPM_P1;HPM_P2
2021/03/05 00:01:47;;;;;;;25.27;12.52;;;;;;;;;;4974456;28;20057;-63
2021/03/05 00:04:32;;;;;;;28.60;12.95;;;;;;;;;;4974231;28;20507;-64
2021/03/05 00:07:17;;;;;;;27.52;13.93;;;;;;;;;;4973571;28;20434;-63
2021/03/05 00:10:10;;;;;;;24.42;12.57;;;;;;;;;;4974029;28;20419;-64
2021/03/05 00:12:55;;;;;;;23.60;12.10;;;;;;;;;;4973954;28;20047;-63
2021/03/05 00:15:41;;;;;;;21.90;12.18;;;;;;;;;;4973718;28;20043;-64
2021/03/05 00:18:26;;;;;;;28.77;12.15;;;;;;;;;;4973762;28;20043;-64
2021/03/05 00:21:12;;;;;;;23.52;12.68;;;;;;;;;;4973217;28;20046;-63
2021/03/05 00:23:57;;;;;;;25.10;12.35;;;;;;;;;;4973728;28;20046;-63
2021/03/05 00:26:43;;;;;;;23.00;12.93;;;;;;;;;;4973945;28;20054;-63
2021/03/05 00:29:29;;;;;;;28.77;11.52;;;;;;;;;;4958972;28;20054;-64
2021/03/05 00:32:14;;;;;;;27.63;13.57;;;;;;;;;;4973899;28;20051;-63
2021/03/05 00:34:59;;;;;;;22.70;12.23;;;;;;;;;;4973682;28;20078;-63
2021/03/05 00:37:45;;;;;;;22.92;11.85;;;;;;;;;;4973356;28;20057;-64
2021/03/05 00:40:30;;;;;;;26.30;13.05;;;;;;;;;;4973360;28;20038;-64
2021/03/05 00:43:16;;;;;;;23.50;12.27;;;;;;;;;;4973767;28;20074;-64
2021/03/05 00:46:01;;;;;;;26.00;12.18;;;;;;;;;;4973432;28;20058;-63
2021/03/05 00:48:49;;;;;;;28.58;11.80;;;;;;;;;;4956992;28;20470;-63
2021/03/05 00:51:34;;;;;;;22.17;11.30;;;;;;;;;;4959000;28;20051;-64
2021/03/05 00:54:19;;;;;;;27.23;12.18;;;;;;;;;;4973416;28;20057;-63
2021/03/05 00:57:05;;;;;;;25.13;12.32;;;;;;;;;;4958729;28;20194;-63
2021/03/05 00:59:51;;;;;;;22.67;10.52;;;;;;;;;;4957096;28;20100;-63
2021/03/05 01:02:36;;;;;;;23.42;10.48;;;;;;;;;;4951690;28;20043;-64
2021/03/05 01:05:21;;;;;;;25.15;10.02;;;;;;;;;;4954236;29;20146;-64
2021/03/05 01:08:08;;;;;;;24.90;12.55;;;;;;;;;;4961444;28;20125;-63
2021/03/05 01:10:59;;;;;;;31.02;12.73;;;;;;;;;;4973305;28;20141;-63
2021/03/05 01:13:44;;;;;;;39.75;13.45;;;;;;;;;;4973117;28;20478;-63
2021/03/05 01:16:29;;;;;;;25.67;11.30;;;;;;;;;;4973123;28;20423;-64
2021/03/05 01:19:15;;;;;;;32.47;12.70;;;;;;;;;;4972421;28;20049;-64
2021/03/05 01:22:00;;;;;;;25.02;10.93;;;;;;;;;;4973098;28;20502;-63
2021/03/05 01:24:45;;;;;;;27.13;12.57;;;;;;;;;;4973217;28;20171;-63
2021/03/05 01:27:31;;;;;;;29.73;11.40;;;;;;;;;;4973012;28;20053;-64
2021/03/05 01:30:17;;;;;;;28.85;12.25;;;;;;;;;;4972630;28;20047;-64
2021/03/05 01:33:02;;;;;;;21.48;11.07;;;;;;;;;;4973055;28;20050;-63
2021/03/05 01:35:47;;;;;;;34.92;12.60;;;;;;;;;;4972838;28;20047;-64
2021/03/05 01:38:33;;;;;;;19.13;10.23;;;;;;;;;;4972370;28;20134;-63
2021/03/05 01:41:18;;;;;;;26.83;11.02;;;;;;;;;;4972958;28;20047;-63
2021/03/05 01:44:05;;;;;;;23.17;11.40;;;;;;;;;;4973003;28;20050;-63
2021/03/05 01:46:51;;;;;;;27.30;11.27;;;;;;;;;;4972747;28;20499;-64
2021/03/05 01:49:36;;;;;;;26.60;11.18;;;;;;;;;;4972671;28;20414;-63
2021/03/05 01:52:21;;;;;;;34.90;11.65;;;;;;;;;;4972717;28;20046;-64
2021/03/05 01:55:07;;;;;;;32.63;12.30;;;;;;;;;;4972736;28;20061;-64
2021/03/05 01:57:52;;;;;;;32.65;12.75;;;;;;;;;;4972642;28;20126;-64
2021/03/05 02:00:41;;;;;;;31.77;12.38;;;;;;;;;;4972417;28;20398;-64
2021/03/05 02:03:27;;;;;;;33.47;11.05;;;;;;;;;;4972348;28;20046;-64
2021/03/05 02:06:13;;;;;;;27.85;11.05;;;;;;;;;;4973076;28;20055;-63
2021/03/05 02:08:58;;;;;;;27.15;11.45;;;;;;;;;;4957955;28;20054;-63
2021/03/05 02:11:44;;;;;;;27.67;11.48;;;;;;;;;;4965997;28;20073;-64
2021/03/05 02:14:29;;;;;;;25.88;10.45;;;;;;;;;;4953646;29;20051;-63
2021/03/05 02:17:19;;;;;;;30.65;9.57;;;;;;;;;;4953401;29;20054;-64
2021/03/05 02:20:04;;;;;;;21.17;11.15;;;;;;;;;;4954396;28;20151;-64
2021/03/05 02:23:00;;;;;;;20.67;9.23;;;;;;;;;;4972753;28;20129;-63
2021/03/05 02:25:51;;;;;;;30.75;10.18;;;;;;;;;;4958081;28;20430;-64
2021/03/05 02:28:47;;;;;;;24.55;9.20;;;;;;;;;;4972202;28;20055;-63
2021/03/05 02:31:38;;;;;;;19.42;8.50;;;;;;;;;;4955770;28;20451;-63
2021/03/05 02:34:26;;;;;;;20.95;9.00;;;;;;;;;;4956600;29;20066;-63
2021/03/05 02:37:12;;;;;;;18.35;7.72;;;;;;;;;;4942301;29;20051;-63
2021/03/05 02:40:00;;;;;;;20.90;7.60;;;;;;;;;;4942031;29;20047;-63
2021/03/05 02:42:53;;;;;;;15.98;7.13;;;;;;;;;;4974027;28;20054;-63
2021/03/05 02:45:39;;;;;;;28.67;9.25;;;;;;;;;;4960793;28;20615;-63
2021/03/05 02:48:28;;;;;;;21.20;8.15;;;;;;;;;;4975659;28;20061;-64
2021/03/05 02:51:14;;;;;;;19.50;7.82;;;;;;;;;;4958539;28;20066;-63
2021/03/05 02:54:01;;;;;;;20.42;9.07;;;;;;;;;;4974820;28;20057;-64
2021/03/05 02:56:47;;;;;;;30.10;9.02;;;;;;;;;;4961234;28;20054;-64
2021/03/05 02:59:32;;;;;;;20.10;8.23;;;;;;;;;;4955259;28;20051;-63
2021/03/05 03:02:17;;;;;;;21.05;8.07;;;;;;;;;;4951815;28;20051;-63
2021/03/05 03:05:03;;;;;;;21.42;9.18;;;;;;;;;;4958914;28;20050;-63
2021/03/05 03:07:49;;;;;;;19.50;9.40;;;;;;;;;;4959882;28;20054;-64
2021/03/05 03:10:34;;;;;;;24.95;8.70;;;;;;;;;;4960966;28;20047;-63
2021/03/05 03:13:20;;;;;;;23.90;9.73;;;;;;;;;;4959987;28;20105;-63
2021/03/05 03:16:06;;;;;;;21.00;8.75;;;;;;;;;;4959945;28;20046;-64
2021/03/05 03:18:51;;;;;;;17.35;8.82;;;;;;;;;;4960652;28;20043;-64
2021/03/05 03:21:36;;;;;;;29.08;8.80;;;;;;;;;;4975175;28;20054;-63
2021/03/05 03:24:21;;;;;;;31.35;9.02;;;;;;;;;;4974771;28;20050;-63
2021/03/05 03:27:07;;;;;;;22.65;8.25;;;;;;;;;;4975203;28;20047;-63
2021/03/05 03:29:52;;;;;;;17.67;7.75;;;;;;;;;;4974874;28;20054;-63
2021/03/05 03:32:43;;;;;;;21.48;8.95;;;;;;;;;;4960860;28;20062;-63
2021/03/05 03:35:29;;;;;;;25.23;9.15;;;;;;;;;;4973391;28;20513;-64
2021/03/05 03:38:14;;;;;;;28.55;9.43;;;;;;;;;;4960306;28;20055;-63
2021/03/05 03:40:59;;;;;;;24.13;9.45;;;;;;;;;;4973901;28;20054;-63
2021/03/05 03:43:44;;;;;;;23.08;9.30;;;;;;;;;;4974593;28;20163;-63
2021/03/05 03:46:30;;;;;;;20.33;8.88;;;;;;;;;;4974965;28;20487;-64
2021/03/05 03:49:34;;;;;;;21.17;9.00;;;;;;;;;;4960060;28;20082;-64
2021/03/05 03:52:21;;;;;;;17.25;6.75;;;;;;;;;;4959959;28;20057;-64
2021/03/05 03:55:07;;;;;;;13.75;5.30;;;;;;;;;;4959395;28;20691;-63
2021/03/05 03:57:53;;;;;;;15.50;5.30;;;;;;;;;;4974109;28;20133;-63
2021/03/05 04:00:41;;;;;;;11.70;5.15;;;;;;;;;;4960375;28;20129;-64
2021/03/05 04:03:31;;;;;;;13.90;4.45;;;;;;;;;;4960142;28;20046;-64
2021/03/05 04:06:20;;;;;;;9.73;4.57;;;;;;;;;;4973060;28;20533;-63
2021/03/05 04:09:05;;;;;;;7.32;3.72;;;;;;;;;;4959777;28;20510;-63
2021/03/05 04:11:51;;;;;;;7.47;3.78;;;;;;;;;;4959795;28;20239;-63
2021/03/05 04:14:37;;;;;;;8.90;3.38;;;;;;;;;;4959230;28;20054;-63
2021/03/05 04:17:22;;;;;;;7.47;2.85;;;;;;;;;;4972957;28;20182;-64
2021/03/05 04:20:08;;;;;;;9.57;3.17;;;;;;;;;;4974348;28;20074;-64
2021/03/05 04:22:53;;;;;;;11.55;3.65;;;;;;;;;;4959512;28;20451;-63
2021/03/05 04:25:38;;;;;;;6.97;2.30;;;;;;;;;;4973268;28;20043;-63
2021/03/05 04:28:23;;;;;;;8.20;2.83;;;;;;;;;;4972933;28;20058;-63
2021/03/05 04:31:09;;;;;;;4.93;3.00;;;;;;;;;;4973914;28;20054;-63
2021/03/05 04:33:54;;;;;;;9.40;2.70;;;;;;;;;;4973880;28;20125;-63
2021/03/05 04:36:40;;;;;;;7.35;2.85;;;;;;;;;;4972901;28;20053;-64
2021/03/05 04:39:25;;;;;;;8.70;3.20;;;;;;;;;;4973169;28;20514;-64
2021/03/05 04:42:10;;;;;;;10.55;3.58;;;;;;;;;;4973754;28;20121;-63
2021/03/05 04:44:56;;;;;;;9.63;2.80;;;;;;;;;;4973725;28;20078;-63
2021/03/05 04:47:41;;;;;;;9.20;3.25;;;;;;;;;;4973408;28;20519;-63
2021/03/05 04:50:27;;;;;;;9.02;3.55;;;;;;;;;;4973763;28;20053;-63
2021/03/05 04:53:12;;;;;;;6.60;3.00;;;;;;;;;;4973349;28;20054;-64
2021/03/05 04:55:57;;;;;;;9.73;2.83;;;;;;;;;;4973079;28;20074;-64
2021/03/05 04:58:44;;;;;;;8.15;2.80;;;;;;;;;;4973218;28;20050;-64
2021/03/05 05:01:29;;;;;;;7.13;2.60;;;;;;;;;;4973346;28;20199;-63
2021/03/05 05:04:14;;;;;;;12.20;2.72;;;;;;;;;;4973478;28;20039;-63
2021/03/05 05:07:00;;;;;;;5.63;2.30;;;;;;;;;;4972835;28;20050;-64
2021/03/05 05:09:45;;;;;;;8.07;2.42;;;;;;;;;;4972192;28;20035;-63
2021/03/05 05:12:30;;;;;;;11.27;2.03;;;;;;;;;;4973109;28;20046;-63
2021/03/05 05:15:16;;;;;;;8.82;2.45;;;;;;;;;;4973178;28;20105;-63
2021/03/05 05:18:02;;;;;;;8.95;2.45;;;;;;;;;;4972020;28;20047;-63
2021/03/05 05:20:48;;;;;;;7.20;2.28;;;;;;;;;;4972604;28;20046;-63
2021/03/05 05:23:37;;;;;;;3.72;1.90;;;;;;;;;;4959238;28;20054;-63
2021/03/05 05:26:22;;;;;;;8.55;2.22;;;;;;;;;;4973170;28;20059;-63
2021/03/05 05:29:10;;;;;;;10.63;2.15;;;;;;;;;;4972336;28;20051;-63
2021/03/05 05:31:55;;;;;;;9.50;1.90;;;;;;;;;;4972743;28;20526;-63
2021/03/05 05:34:41;;;;;;;5.75;3.05;;;;;;;;;;4973142;28;20427;-63
2021/03/05 05:37:26;;;;;;;7.95;2.10;;;;;;;;;;4958022;28;20552;-64
2021/03/05 05:40:11;;;;;;;5.65;2.00;;;;;;;;;;4971700;28;20141;-62
2021/03/05 05:42:56;;;;;;;8.70;1.67;;;;;;;;;;4972825;28;20043;-63
2021/03/05 05:45:47;;;;;;;6.30;1.95;;;;;;;;;;4958774;28;20522;-63
2021/03/05 05:48:38;;;;;;;3.58;1.25;;;;;;;;;;4972036;28;20074;-63
2021/03/05 05:51:24;;;;;;;6.00;1.92;;;;;;;;;;5016402;22;20068;-63
2021/03/05 05:54:11;;;;;;;6.35;2.05;;;;;;;;;;4972649;28;20054;-64
2021/03/05 05:56:57;;;;;;;4.25;1.23;;;;;;;;;;4972530;28;20042;-62
2021/03/05 05:59:42;;;;;;;7.60;1.25;;;;;;;;;;4972924;28;20113;-63
2021/03/05 06:02:30;;;;;;;14.38;4.18;;;;;;;;;;5002698;28;20046;-62
2021/03/05 06:05:18;;;;;;;6.15;1.90;;;;;;;;;;4997874;28;20074;-63
2021/03/05 06:08:03;;;;;;;6.93;2.05;;;;;;;;;;5001273;28;20050;-61
2021/03/05 06:10:49;;;;;;;8.75;1.73;;;;;;;;;;5013671;28;20049;-63
2021/03/05 06:13:34;;;;;;;9.60;2.33;;;;;;;;;;5015105;28;20149;-64
2021/03/05 06:16:20;;;;;;;3.78;1.30;;;;;;;;;;5015475;28;20053;-64
2021/03/05 06:19:17;;;;;;;5.00;1.60;;;;;;;;;;5015074;28;20037;-63
2021/03/05 06:22:04;;;;;;;7.43;1.77;;;;;;;;;;5012645;28;20104;-64
2021/03/05 06:24:49;;;;;;;6.60;1.63;;;;;;;;;;5014880;28;20512;-62
2021/03/05 06:27:35;;;;;;;6.97;1.55;;;;;;;;;;5014832;28;20058;-63
2021/03/05 06:30:29;;;;;;;5.18;1.20;;;;;;;;;;5014141;28;20046;-62
2021/03/05 06:33:31;;;;;;;5.78;1.80;;;;;;;;;;5013873;28;20050;-65
2021/03/05 06:36:17;;;;;;;4.07;1.38;;;;;;;;;;5014717;28;20045;-64
2021/03/05 06:39:03;;;;;;;9.95;4.18;;;;;;;;;;5000212;28;20072;-63
2021/03/05 06:41:48;;;;;;;8.80;1.95;;;;;;;;;;5013199;28;20475;-64
2021/03/05 06:44:35;;;;;;;5.28;1.40;;;;;;;;;;4979963;28;20133;-62
2021/03/05 06:47:21;;;;;;;5.00;1.70;;;;;;;;;;5014014;28;20050;-63
2021/03/05 06:50:20;;;;;;;8.02;1.55;;;;;;;;;;5012118;28;20155;-63
2021/03/05 06:53:24;;;;;;;6.78;1.73;;;;;;;;;;4979643;28;20124;-64
2021/03/05 06:56:09;;;;;;;2.88;1.00;;;;;;;;;;4994892;28;20054;-63
2021/03/05 06:59:04;;;;;;;4.97;1.30;;;;;;;;;;4980100;28;20493;-63
2021/03/05 07:01:50;;;;;;;5.57;1.45;;;;;;;;;;5007778;28;20038;-64
2021/03/05 07:04:48;;;;;;;6.38;1.10;;;;;;;;;;5014392;28;20406;-63
2021/03/05 07:07:41;;;;;;;2.88;1.30;;;;;;;;;;5014252;28;20052;-63
2021/03/05 07:10:31;;;;;;;5.05;1.73;;;;;;;;;;4999665;28;20050;-63
2021/03/05 07:13:17;;;;;;;5.18;1.58;;;;;;;;;;4993231;28;20545;-63
2021/03/05 07:16:03;;;;;;;3.88;1.20;;;;;;;;;;4994331;28;20042;-63
2021/03/05 07:18:49;;;;;;;9.32;1.65;;;;;;;;;;4994323;28;20525;-63
2021/03/05 07:21:38;;;;;;;8.55;1.45;;;;;;;;;;4997712;28;20410;-63
2021/03/05 07:24:24;;;;;;;5.53;1.13;;;;;;;;;;5013941;28;20519;-63
2021/03/05 07:27:11;;;;;;;7.47;0.80;;;;;;;;;;5014257;28;20061;-63
2021/03/05 07:29:59;;;;;;;8.10;1.15;;;;;;;;;;5013848;28;20406;-63
2021/03/05 07:32:47;;;;;;;12.57;1.90;;;;;;;;;;5002450;28;20129;-64
2021/03/05 07:35:36;;;;;;;3.67;1.00;;;;;;;;;;4979622;28;20042;-64
2021/03/05 07:38:23;;;;;;;9.25;1.30;;;;;;;;;;4993777;28;20494;-63
2021/03/05 07:41:08;;;;;;;6.78;1.10;;;;;;;;;;4979983;28;20053;-64
2021/03/05 07:43:54;;;;;;;9.05;1.85;;;;;;;;;;4979654;28;20145;-64
2021/03/05 07:46:39;;;;;;;5.72;0.80;;;;;;;;;;4993270;28;20058;-63
2021/03/05 07:49:28;;;;;;;4.38;1.45;;;;;;;;;;4993717;28;20065;-63
2021/03/05 07:52:14;;;;;;;10.30;1.52;;;;;;;;;;4997472;28;20050;-63
2021/03/05 07:54:59;;;;;;;6.95;1.20;;;;;;;;;;5012922;28;20050;-64
2021/03/05 07:57:46;;;;;;;6.30;0.63;;;;;;;;;;5013068;28;20053;-64
2021/03/05 08:00:47;;;;;;;3.13;0.98;;;;;;;;;;4997071;28;20050;-63
2021/03/05 08:04:02;;;;;;;5.50;1.17;;;;;;;;;;5013396;28;20046;-63
2021/03/05 08:07:07;;;;;;;9.98;2.10;;;;;;;;;;5008399;28;20056;-64
2021/03/05 08:09:53;;;;;;;17.52;2.45;;;;;;;;;;4998260;28;20074;-64
2021/03/05 08:12:42;;;;;;;3.88;0.88;;;;;;;;;;4993066;28;20078;-64
2021/03/05 08:15:27;;;;;;;3.15;0.82;;;;;;;;;;4993597;28;20046;-64
2021/03/05 08:18:19;;;;;;;8.18;1.27;;;;;;;;;;4993178;28;20049;-64
2021/03/05 08:21:05;;;;;;;3.90;0.93;;;;;;;;;;4996589;28;20069;-63
2021/03/05 08:24:20;;;;;;;4.82;0.80;;;;;;;;;;4998127;28;20057;-63
2021/03/05 08:27:08;;;;;;;20.02;2.33;;;;;;;;;;5012477;28;20050;-63
2021/03/05 08:29:56;;;;;;;5.57;1.00;;;;;;;;;;5012806;28;20128;-63
2021/03/05 08:32:50;;;;;;;5.68;0.70;;;;;;;;;;4998526;28;20454;-63
2021/03/05 08:35:36;;;;;;;8.15;1.10;;;;;;;;;;4992783;28;20050;-64
2021/03/05 08:38:23;;;;;;;3.53;1.00;;;;;;;;;;4992916;28;20046;-63
2021/03/05 08:41:15;;;;;;;4.47;0.95;;;;;;;;;;4992975;28;20058;-63
2021/03/05 08:44:01;;;;;;;;;;;;;;;;;;4982316;28;20470;-63
2021/03/05 08:46:47;;;;;;;6.55;1.17;;;;;;;;;;5012672;28;19921;-64
2021/03/05 08:49:32;;;;;;;3.72;0.95;;;;;;;;;;5012272;28;20103;-63
2021/03/05 08:52:17;;;;;;;12.60;1.63;;;;;;;;;;4993923;28;20062;-63
2021/03/05 08:55:07;;;;;;;1.52;0.70;;;;;;;;;;4992710;28;20507;-63
2021/03/05 08:57:52;;;;;;;4.72;1.00;;;;;;;;;;4992509;28;20069;-64
2021/03/05 09:00:38;;;;;;;1.60;0.60;;;;;;;;;;4995101;28;20049;-63
2021/03/05 09:03:23;;;;;;;4.22;0.90;;;;;;;;;;4999962;28;20057;-64
2021/03/05 09:06:12;;;;;;;5.95;1.15;;;;;;;;;;5002706;28;20042;-64
2021/03/05 09:09:08;;;;;;;5.22;0.90;;;;;;;;;;4993954;28;20081;-64
2021/03/05 09:12:05;;;;;;;3.60;0.60;;;;;;;;;;4994065;28;20038;-64
2021/03/05 09:15:02;;;;;;;3.00;0.90;;;;;;;;;;4992452;28;20499;-64
2021/03/05 09:17:48;;;;;;;0.93;0.50;;;;;;;;;;4992341;28;20399;-64
2021/03/05 09:20:36;;;;;;;1.48;0.40;;;;;;;;;;4995926;28;20530;-65
2021/03/05 09:23:26;;;;;;;9.48;1.13;;;;;;;;;;4990943;28;20066;-64
2021/03/05 09:26:15;;;;;;;4.75;0.65;;;;;;;;;;4992582;28;20498;-64
2021/03/05 09:29:04;;;;;;;9.73;0.80;;;;;;;;;;4992160;28;20053;-64
2021/03/05 09:31:58;;;;;;;1.27;0.63;;;;;;;;;;4993380;28;20047;-65
2021/03/05 09:34:54;;;;;;;7.25;1.20;;;;;;;;;;4991970;28;20050;-64
2021/03/05 09:37:39;;;;;;;3.20;0.55;;;;;;;;;;4992119;28;20093;-64
2021/03/05 09:40:25;;;;;;;5.28;2.25;;;;;;;;;;4994574;28;20414;-64
2021/03/05 09:43:14;;;;;;;3.35;0.63;;;;;;;;;;4995457;28;20054;-64
2021/03/05 09:45:59;;;;;;;1.08;0.47;;;;;;;;;;4996322;28;20053;-64
2021/03/05 09:48:47;;;;;;;2.15;0.55;;;;;;;;;;4995989;28;20421;-64
2021/03/05 09:51:38;;;;;;;35.65;4.22;;;;;;;;;;4999098;28;20050;-64
2021/03/05 09:54:38;;;;;;;2.92;0.52;;;;;;;;;;5014895;28;20413;-64
2021/03/05 09:57:25;;;;;;;2.55;0.47;;;;;;;;;;5015772;28;20049;-64
2021/03/05 10:00:41;;;;;;;1.88;0.50;;;;;;;;;;5014076;28;20046;-64
2021/03/05 10:03:26;;;;;;;1.80;0.30;;;;;;;;;;5015693;28;20146;-64
2021/03/05 10:06:19;;;;;;;9.80;0.98;;;;;;;;;;5015520;28;20049;-64
2021/03/05 10:09:06;;;;;;;6.35;0.75;;;;;;;;;;5012091;28;20085;-64
2021/03/05 10:11:51;;;;;;;4.03;0.70;;;;;;;;;;5010485;28;20609;-64
2021/03/05 10:14:36;;;;;;;3.08;0.28;;;;;;;;;;5006054;28;20105;-64
2021/03/05 10:17:21;;;;;;;2.67;0.60;;;;;;;;;;5004991;28;20049;-64
2021/03/05 10:20:07;;;;;;;4.15;0.50;;;;;;;;;;5009489;28;20522;-64
2021/03/05 10:22:52;;;;;;;2.30;0.70;;;;;;;;;;5007655;28;20073;-64
2021/03/05 10:25:38;;;;;;;2.38;0.30;;;;;;;;;;5007619;28;20046;-63
2021/03/05 10:28:27;;;;;;;3.53;0.70;;;;;;;;;;4997238;28;20050;-64
2021/03/05 10:31:13;;;;;;;5.35;0.70;;;;;;;;;;4997851;28;20417;-64
2021/03/05 10:33:58;;;;;;;3.88;0.60;;;;;;;;;;5010891;28;20046;-64
2021/03/05 10:36:44;;;;;;;2.65;0.50;;;;;;;;;;5006390;28;20050;-64
2021/03/05 10:39:32;;;;;;;4.57;0.65;;;;;;;;;;5005614;28;20049;-64
2021/03/05 10:42:18;;;;;;;2.67;0.50;;;;;;;;;;5006140;28;20042;-64
2021/03/05 10:45:04;;;;;;;7.28;0.70;;;;;;;;;;5003443;28;20491;-64
2021/03/05 10:47:50;;;;;;;7.38;0.82;;;;;;;;;;5005133;28;20057;-64
2021/03/05 10:50:35;;;;;;;4.13;0.50;;;;;;;;;;5008390;28;20461;-65
2021/03/05 10:53:21;;;;;;;1.58;0.50;;;;;;;;;;5007376;28;20706;-65
2021/03/05 10:56:07;;;;;;;5.40;1.52;;;;;;;;;;5009458;28;20046;-65
2021/03/05 10:58:52;;;;;;;2.25;0.70;;;;;;;;;;5012399;28;20048;-65
2021/03/05 11:01:38;;;;;;;3.05;0.30;;;;;;;;;;5008540;28;20044;-65
2021/03/05 11:04:23;;;;;;;2.83;0.65;;;;;;;;;;5006668;28;20046;-65
2021/03/05 11:07:09;;;;;;;1.58;0.60;;;;;;;;;;5008875;28;20042;-65
2021/03/05 11:09:54;;;;;;;2.53;0.93;;;;;;;;;;5006869;28;20034;-65
2021/03/05 11:12:40;;;;;;;1.90;0.73;;;;;;;;;;5007272;28;20161;-66
2021/03/05 11:15:25;;;;;;;0.90;0.40;;;;;;;;;;5003773;28;20045;-65
2021/03/05 11:18:11;;;;;;;1.45;0.30;;;;;;;;;;5004739;28;20049;-66
2021/03/05 11:20:56;;;;;;;2.65;0.40;;;;;;;;;;5007912;28;20085;-65
2021/03/05 11:23:42;;;;;;;4.00;0.60;;;;;;;;;;4999417;28;20061;-65
2021/03/05 11:26:28;;;;;;;1.88;0.52;;;;;;;;;;4994414;28;20455;-66
2021/03/05 11:29:14;;;;;;;4.10;0.40;;;;;;;;;;4994101;28;20129;-65
2021/03/05 11:32:04;;;;;;;5.43;1.00;;;;;;;;;;4999154;28;20128;-66
2021/03/05 11:34:49;;;;;;;3.50;0.45;;;;;;;;;;5001642;28;20042;-65
2021/03/05 11:37:35;;;;;;;2.67;0.60;;;;;;;;;;5003257;28;20046;-65
2021/03/05 11:40:20;;;;;;;1.65;0.55;;;;;;;;;;5013726;28;20092;-65
2021/03/05 11:43:05;;;;;;;2.42;0.60;;;;;;;;;;5010380;28;20505;-66
2021/03/05 11:45:51;;;;;;;3.30;0.85;;;;;;;;;;5010022;28;20049;-65
2021/03/05 11:48:36;;;;;;;2.90;0.80;;;;;;;;;;5006452;28;20053;-66
2021/03/05 11:51:22;;;;;;;0.93;0.40;;;;;;;;;;5005865;28;20093;-65
2021/03/05 11:54:08;;;;;;;3.35;1.23;;;;;;;;;;5064961;22;20045;-66
2021/03/05 11:56:53;;;;;;;2.75;0.50;;;;;;;;;;5029000;28;20037;-66
2021/03/05 11:59:38;;;;;;;1.92;0.40;;;;;;;;;;5020115;28;20054;-65
2021/03/05 12:02:24;;;;;;;1.45;0.25;;;;;;;;;;5014021;28;20532;-65
2021/03/05 12:05:09;;;;;;;2.33;0.45;;;;;;;;;;4989371;28;20042;-65
2021/03/05 12:07:55;;;;;;;4.15;0.90;;;;;;;;;;4997289;28;20733;-65
2021/03/05 12:10:52;;;;;;;4.32;0.40;;;;;;;;;;5008500;28;20038;-66
2021/03/05 12:13:37;;;;;;;3.72;1.20;;;;;;;;;;4983418;28;20117;-66
2021/03/05 12:16:24;;;;;;;1.63;0.43;;;;;;;;;;5000704;28;20041;-65
2021/03/05 12:19:09;;;;;;;15.98;1.50;;;;;;;;;;5012740;28;20045;-67
2021/03/05 12:21:54;;;;;;;0.77;0.52;;;;;;;;;;5007818;28;20054;-67
2021/03/05 12:24:41;;;;;;;2.78;0.50;;;;;;;;;;5002934;28;20475;-67
2021/03/05 12:27:46;;;;;;;3.10;0.85;;;;;;;;;;4990039;28;20133;-66
2021/03/05 12:30:52;;;;;;;7.50;0.65;;;;;;;;;;4990942;28;20053;-67
2021/03/05 12:33:57;;;;;;;3.75;0.50;;;;;;;;;;4995075;28;20048;-66
2021/03/05 12:37:02;;;;;;;2.10;0.50;;;;;;;;;;4986632;28;20050;-66
2021/03/05 12:40:08;;;;;;;1.10;0.38;;;;;;;;;;4978930;28;20061;-66
2021/03/05 12:42:56;;;;;;;2.92;0.63;;;;;;;;;;5007719;28;20443;-67
2021/03/05 12:45:41;;;;;;;2.83;0.63;;;;;;;;;;4999716;28;20156;-65
2021/03/05 12:48:26;;;;;;;3.53;0.80;;;;;;;;;;5011623;28;20049;-64
2021/03/05 12:51:12;;;;;;;4.00;0.45;;;;;;;;;;5012020;28;20151;-64
2021/03/05 12:53:57;;;;;;;5.20;0.73;;;;;;;;;;5010422;28;20060;-64
2021/03/05 12:56:42;;;;;;;6.10;0.60;;;;;;;;;;5012240;28;20057;-64
2021/03/05 12:59:28;;;;;;;2.92;0.70;;;;;;;;;;5011975;28;20050;-64
2021/03/05 13:02:13;;;;;;;2.08;0.40;;;;;;;;;;5010423;28;20042;-65
2021/03/05 13:04:59;;;;;;;4.32;1.58;;;;;;;;;;5009770;28;20041;-65
2021/03/05 13:07:44;;;;;;;3.15;0.50;;;;;;;;;;5012046;28;20116;-66
2021/03/05 13:10:30;;;;;;;3.95;0.50;;;;;;;;;;5012514;28;20082;-65
2021/03/05 13:13:15;;;;;;;4.07;0.60;;;;;;;;;;5006528;28;20113;-65
2021/03/05 13:16:00;;;;;;;3.40;0.95;;;;;;;;;;4992365;28;20043;-65
2021/03/05 13:18:48;;;;;;;5.07;1.25;;;;;;;;;;4992289;28;20042;-65
2021/03/05 13:21:34;;;;;;;2.53;0.50;;;;;;;;;;4992425;28;20491;-65
2021/03/05 13:24:19;;;;;;;5.13;1.00;;;;;;;;;;5002879;28;20054;-65
2021/03/05 13:27:05;;;;;;;4.88;0.90;;;;;;;;;;5011725;28;20134;-65
2021/03/05 13:29:51;;;;;;;6.07;0.73;;;;;;;;;;5011936;28;20054;-65
2021/03/05 13:32:36;;;;;;;5.15;0.60;;;;;;;;;;5011771;28;20046;-64
2021/03/05 13:35:21;;;;;;;2.65;0.43;;;;;;;;;;4994756;28;20046;-65
2021/03/05 13:38:06;;;;;;;2.05;0.60;;;;;;;;;;4991790;28;20081;-65
2021/03/05 13:40:52;;;;;;;7.05;0.70;;;;;;;;;;4992443;28;20511;-66
2021/03/05 13:43:37;;;;;;;3.58;0.70;;;;;;;;;;4992226;28;20058;-65
2021/03/05 13:46:23;;;;;;;1.75;0.40;;;;;;;;;;4992280;28;20034;-65
2021/03/05 13:49:08;;;;;;;3.10;0.57;;;;;;;;;;4992631;28;20102;-67
2021/03/05 13:51:53;;;;;;;2.97;0.50;;;;;;;;;;5005361;28;20521;-68
2021/03/05 13:54:39;;;;;;;3.38;0.70;;;;;;;;;;4997013;28;20042;-68
2021/03/05 13:57:24;;;;;;;3.85;0.60;;;;;;;;;;4991742;28;20046;-68
2021/03/05 14:00:11;;;;;;;1.63;0.40;;;;;;;;;;5000637;28;20043;-68
2021/03/05 14:02:56;;;;;;;3.70;0.50;;;;;;;;;;5000523;28;20042;-68
2021/03/05 14:05:41;;;;;;;3.00;0.57;;;;;;;;;;5010926;28;20046;-67
2021/03/05 14:08:27;;;;;;;1.45;0.55;;;;;;;;;;5011224;28;20456;-67
2021/03/05 14:11:12;;;;;;;4.18;0.80;;;;;;;;;;5006352;28;20038;-67
2021/03/05 14:13:57;;;;;;;3.75;0.70;;;;;;;;;;4995259;28;20051;-68
2021/03/05 14:16:43;;;;;;;3.75;0.60;;;;;;;;;;5001750;28;20039;-67
2021/03/05 14:19:28;;;;;;;2.45;0.52;;;;;;;;;;5001241;28;21878;-68
2021/03/05 14:22:14;;;;;;;2.35;0.50;;;;;;;;;;4999699;28;20108;-67
2021/03/05 14:24:59;;;;;;;5.25;0.50;;;;;;;;;;5011482;28;20050;-68
2021/03/05 14:27:47;;;;;;;3.78;0.50;;;;;;;;;;5006012;28;20042;-67
2021/03/05 14:30:33;;;;;;;3.63;0.55;;;;;;;;;;5004990;28;20041;-68
2021/03/05 14:33:18;;;;;;;1.33;0.30;;;;;;;;;;5005735;28;20050;-67
2021/03/05 14:36:04;;;;;;;6.53;1.15;;;;;;;;;;5005865;28;20113;-68
2021/03/05 14:38:49;;;;;;;2.03;0.40;;;;;;;;;;5003115;28;20090;-68
2021/03/05 14:41:37;;;;;;;5.40;0.65;;;;;;;;;;5003443;28;20042;-68
2021/03/05 14:44:22;;;;;;;3.38;0.30;;;;;;;;;;4995806;28;20402;-69
2021/03/05 14:47:07;;;;;;;3.13;1.02;;;;;;;;;;5002034;28;20434;-69
2021/03/05 14:49:53;;;;;;;1.45;0.30;;;;;;;;;;5000762;28;20418;-68
2021/03/05 14:52:38;;;;;;;4.95;0.52;;;;;;;;;;4995221;28;20050;-68
2021/03/05 14:55:24;;;;;;;3.47;0.40;;;;;;;;;;4995216;28;20150;-67
2021/03/05 14:58:09;;;;;;;2.78;0.40;;;;;;;;;;5004087;28;20038;-68
2021/03/05 15:00:54;;;;;;;2.95;0.30;;;;;;;;;;5003626;28;20046;-68
2021/03/05 15:03:40;;;;;;;1.98;0.50;;;;;;;;;;5003448;28;20417;-68
2021/03/05 15:06:25;;;;;;;6.05;0.75;;;;;;;;;;5001048;28;20137;-67
2021/03/05 15:09:11;;;;;;;3.53;0.40;;;;;;;;;;4991916;28;20426;-68
2021/03/05 15:11:56;;;;;;;2.10;0.47;;;;;;;;;;4994720;28;20065;-67
2021/03/05 15:14:41;;;;;;;5.22;1.05;;;;;;;;;;5003435;28;20046;-67
2021/03/05 15:17:27;;;;;;;3.03;0.70;;;;;;;;;;5009886;28;20046;-67
2021/03/05 15:20:12;;;;;;;1.60;0.50;;;;;;;;;;5008380;28;20034;-67
2021/03/05 15:22:57;;;;;;;4.05;0.60;;;;;;;;;;5009643;28;20038;-67
2021/03/05 15:25:43;;;;;;;4.45;0.80;;;;;;;;;;4990010;28;20054;-67
2021/03/05 15:28:28;;;;;;;10.98;1.20;;;;;;;;;;5003928;28;20046;-67
2021/03/05 15:31:14;;;;;;;7.18;1.00;;;;;;;;;;5007016;28;20038;-67
2021/03/05 15:33:59;;;;;;;7.47;0.90;;;;;;;;;;5011624;28;20050;-68
2021/03/05 15:36:44;;;;;;;5.88;0.80;;;;;;;;;;5004471;28;20046;-68
2021/03/05 15:39:30;;;;;;;3.33;0.90;;;;;;;;;;5007628;28;20121;-67
2021/03/05 15:42:15;;;;;;;5.55;1.00;;;;;;;;;;5005930;28;20131;-68
2021/03/05 15:45:00;;;;;;;7.63;1.13;;;;;;;;;;5007570;28;20045;-68
2021/03/05 15:47:46;;;;;;;6.10;0.63;;;;;;;;;;5004450;28;20046;-67
2021/03/05 15:50:31;;;;;;;7.20;0.82;;;;;;;;;;4984391;28;20120;-68
2021/03/05 15:53:16;;;;;;;5.05;0.90;;;;;;;;;;4993994;28;20046;-67
2021/03/05 15:56:01;;;;;;;4.40;1.05;;;;;;;;;;4993892;28;20502;-68
2021/03/05 15:58:47;;;;;;;7.45;1.05;;;;;;;;;;5001592;28;20038;-68
2021/03/05 16:01:32;;;;;;;4.40;1.10;;;;;;;;;;5012478;28;20042;-68
2021/03/05 16:04:17;;;;;;;7.55;1.20;;;;;;;;;;5007706;28;20042;-66
2021/03/05 16:07:03;;;;;;;20.30;3.55;;;;;;;;;;5010995;28;20042;-67
2021/03/05 16:09:48;;;;;;;8.48;1.20;;;;;;;;;;5013070;28;20465;-67
2021/03/05 16:12:34;;;;;;;4.78;0.80;;;;;;;;;;5013168;28;20057;-67
2021/03/05 16:15:19;;;;;;;9.32;1.05;;;;;;;;;;5013221;28;20379;-67
2021/03/05 16:18:04;;;;;;;9.13;1.13;;;;;;;;;;5011065;28;20045;-68
2021/03/05 16:20:50;;;;;;;4.10;0.80;;;;;;;;;;4992043;28;20034;-68
2021/03/05 16:23:35;;;;;;;6.20;1.33;;;;;;;;;;5001824;28;20120;-69
2021/03/05 16:26:20;;;;;;;4.55;0.95;;;;;;;;;;4996312;28;20038;-69
2021/03/05 16:29:05;;;;;;;4.95;0.75;;;;;;;;;;4988239;28;20506;-69
2021/03/05 16:31:51;;;;;;;5.97;1.50;;;;;;;;;;4993272;28;20043;-68
2021/03/05 16:34:36;;;;;;;7.85;0.98;;;;;;;;;;4991570;28;20129;-68
2021/03/05 16:37:22;;;;;;;6.55;1.00;;;;;;;;;;5006892;28;20037;-68